Time;durP1;ratioP1;P1;durP2;ratioP2;P2;SDS_P1;SDS_P2;PMS_P1;PMS_P2;Temp;Humidity;BMP_temperature;BMP_pressure;BME280_temperature;BME280_humidity;BME280_pressure;Samples;Min_cycle;Max_cycle;Signal;HPM_P1;HPM_P2
2021/01/06 00:00:49;;;;;;;3.47;0.93;;;;;;;;;;5109341;28;20019;-47
2021/01/06 00:03:21;;;;;;;3.42;1.00;;;;;;;;;;5111223;28;20140;-46
2021/01/06 00:05:52;;;;;;;7.10;0.90;;;;;;;;;;5109360;28;20015;-47
2021/01/06 00:08:20;;;;;;;2.20;0.80;;;;;;;;;;5112234;28;20159;-48
2021/01/06 00:10:54;;;;;;;5.15;1.23;;;;;;;;;;5111854;28;20071;-47
2021/01/06 00:13:21;;;;;;;4.88;0.85;;;;;;;;;;5113161;28;20035;-49
2021/01/06 00:15:48;;;;;;;3.20;1.13;;;;;;;;;;5111755;28;20058;-48
2021/01/06 00:18:16;;;;;;;3.55;1.08;;;;;;;;;;5104535;28;20021;-45
2021/01/06 00:20:43;;;;;;;2.97;0.90;;;;;;;;;;5103288;28;20024;-48
2021/01/06 00:23:11;;;;;;;4.75;0.95;;;;;;;;;;5099643;28;20020;-47
2021/01/06 00:25:41;;;;;;;5.30;1.10;;;;;;;;;;5106984;28;20110;-48
2021/01/06 00:28:11;;;;;;;2.92;0.85;;;;;;;;;;5112272;28;20103;-46
2021/01/06 00:30:42;;;;;;;3.17;0.77;;;;;;;;;;5111857;28;20045;-47
2021/01/06 00:33:12;;;;;;;3.55;0.80;;;;;;;;;;5110416;28;20038;-47
2021/01/06 00:35:39;;;;;;;3.25;0.90;;;;;;;;;;5111524;28;20070;-46
2021/01/06 00:38:06;;;;;;;4.32;0.88;;;;;;;;;;5111347;28;20015;-46
2021/01/06 00:40:34;;;;;;;9.05;0.75;;;;;;;;;;5112023;28;20036;-45
2021/01/06 00:43:03;;;;;;;5.22;1.08;;;;;;;;;;5111612;28;20024;-48
2021/01/06 00:45:30;;;;;;;5.07;0.75;;;;;;;;;;5109816;28;20035;-45
2021/01/06 00:47:57;;;;;;;1.88;0.60;;;;;;;;;;5106558;28;20020;-46
2021/01/06 00:50:25;;;;;;;3.88;0.68;;;;;;;;;;5111442;28;20356;-46
2021/01/06 00:52:52;;;;;;;6.57;0.80;;;;;;;;;;5110323;28;20028;-48
2021/01/06 00:55:19;;;;;;;4.93;1.30;;;;;;;;;;5110108;28;20023;-45
2021/01/06 00:57:46;;;;;;;4.95;1.00;;;;;;;;;;5111938;28;20012;-47
2021/01/06 01:00:16;;;;;;;3.05;0.80;;;;;;;;;;5111560;28;20034;-46
2021/01/06 01:02:49;;;;;;;3.47;0.85;;;;;;;;;;5111355;28;20031;-48
2021/01/06 01:05:16;;;;;;;3.50;0.68;;;;;;;;;;5111882;28;20024;-45
2021/01/06 01:07:43;;;;;;;4.32;0.75;;;;;;;;;;5112282;28;20031;-44
2021/01/06 01:10:20;;;;;;;2.92;0.80;;;;;;;;;;5102141;28;20088;-44
2021/01/06 01:12:50;;;;;;;3.13;1.10;;;;;;;;;;5111704;28;20023;-45
2021/01/06 01:15:22;;;;;;;5.38;0.60;;;;;;;;;;5109408;28;20016;-44
2021/01/06 01:17:49;;;;;;;3.38;0.73;;;;;;;;;;5105901;28;20028;-45
2021/01/06 01:20:17;;;;;;;3.50;0.90;;;;;;;;;;5111771;28;20027;-46
2021/01/06 01:22:47;;;;;;;3.60;0.63;;;;;;;;;;5111245;28;20023;-46
2021/01/06 01:25:16;;;;;;;5.63;1.05;;;;;;;;;;5100012;28;20061;-46
2021/01/06 01:27:43;;;;;;;4.70;0.77;;;;;;;;;;5111784;28;20020;-48
2021/01/06 01:30:12;;;;;;;2.58;0.73;;;;;;;;;;5111675;28;20027;-47
2021/01/06 01:32:43;;;;;;;3.70;0.98;;;;;;;;;;5099723;28;20077;-46
2021/01/06 01:35:11;;;;;;;1.60;0.60;;;;;;;;;;5111267;28;20475;-46
2021/01/06 01:37:41;;;;;;;2.30;0.80;;;;;;;;;;5109035;28;20016;-46
2021/01/06 01:40:09;;;;;;;3.63;1.00;;;;;;;;;;5106642;28;20028;-50
2021/01/06 01:42:36;;;;;;;6.53;0.90;;;;;;;;;;5111801;28;20495;-48
2021/01/06 01:45:05;;;;;;;3.08;0.57;;;;;;;;;;5104545;28;20062;-48
2021/01/06 01:47:38;;;;;;;4.40;0.60;;;;;;;;;;5104971;28;20087;-49
2021/01/06 01:50:06;;;;;;;2.83;0.90;;;;;;;;;;5108411;28;20023;-47
2021/01/06 01:52:40;;;;;;;5.47;0.98;;;;;;;;;;5101514;28;20016;-50
2021/01/06 01:55:10;;;;;;;4.32;0.90;;;;;;;;;;5106620;28;20023;-50
2021/01/06 01:57:40;;;;;;;4.60;0.70;;;;;;;;;;5103518;28;20027;-50
2021/01/06 02:00:14;;;;;;;7.45;1.00;;;;;;;;;;5105140;28;20148;-46
2021/01/06 02:02:41;;;;;;;4.97;1.13;;;;;;;;;;5104718;28;20028;-47
2021/01/06 02:05:11;;;;;;;5.10;1.20;;;;;;;;;;5103581;28;20344;-44
2021/01/06 02:07:41;;;;;;;1.60;0.70;;;;;;;;;;5108333;28;20563;-45
2021/01/06 02:10:15;;;;;;;7.28;1.33;;;;;;;;;;5107142;28;20040;-46
2021/01/06 02:12:50;;;;;;;5.35;1.30;;;;;;;;;;5109681;28;20027;-45
2021/01/06 02:15:29;;;;;;;3.70;0.93;;;;;;;;;;5106675;28;20025;-45
2021/01/06 02:17:56;;;;;;;4.22;1.00;;;;;;;;;;5103172;28;20031;-45
2021/01/06 02:20:26;;;;;;;6.30;0.88;;;;;;;;;;5105671;28;20114;-45
2021/01/06 02:22:53;;;;;;;6.53;1.15;;;;;;;;;;5107835;28;20077;-46
2021/01/06 02:25:28;;;;;;;3.30;0.90;;;;;;;;;;5110444;28;20015;-44
2021/01/06 02:27:55;;;;;;;7.88;1.13;;;;;;;;;;5110110;28;20020;-44
2021/01/06 02:30:23;;;;;;;5.80;1.42;;;;;;;;;;5109319;28;20027;-46
2021/01/06 02:32:50;;;;;;;3.28;0.93;;;;;;;;;;5099797;28;20026;-46
2021/01/06 02:35:18;;;;;;;4.68;1.02;;;;;;;;;;5101398;27;20451;-44
2021/01/06 02:37:47;;;;;;;2.55;0.90;;;;;;;;;;5099256;28;20111;-44
2021/01/06 02:40:15;;;;;;;7.22;1.23;;;;;;;;;;5101533;27;20024;-45
2021/01/06 02:42:42;;;;;;;4.60;1.00;;;;;;;;;;5106275;28;20366;-44
2021/01/06 02:45:11;;;;;;;4.10;1.50;;;;;;;;;;5106064;28;20019;-44
2021/01/06 02:47:39;;;;;;;6.13;0.98;;;;;;;;;;5098567;28;20016;-44
2021/01/06 02:50:08;;;;;;;8.98;1.10;;;;;;;;;;5103683;28;20106;-45
2021/01/06 02:52:58;;;;;;;5.63;1.23;;;;;;;;;;5087581;28;20043;-45
2021/01/06 02:55:26;;;;;;;3.90;0.90;;;;;;;;;;5089847;28;20043;-44
2021/01/06 02:57:55;;;;;;;4.35;1.00;;;;;;;;;;5104711;28;21857;-43
2021/01/06 03:00:25;;;;;;;4.15;0.88;;;;;;;;;;5101938;28;20390;-44
2021/01/06 03:02:52;;;;;;;3.75;1.02;;;;;;;;;;5101510;28;20035;-45
2021/01/06 03:05:21;;;;;;;4.57;0.95;;;;;;;;;;5108334;28;20030;-46
2021/01/06 03:07:48;;;;;;;6.97;1.15;;;;;;;;;;5094874;28;20429;-45
2021/01/06 03:10:17;;;;;;;4.82;0.82;;;;;;;;;;5109204;28;20040;-42
2021/01/06 03:12:44;;;;;;;5.75;0.77;;;;;;;;;;5107441;28;20031;-45
2021/01/06 03:15:12;;;;;;;5.18;1.20;;;;;;;;;;5109516;28;20567;-44
2021/01/06 03:17:39;;;;;;;9.75;1.17;;;;;;;;;;5107426;28;20035;-44
2021/01/06 03:20:10;;;;;;;7.38;1.27;;;;;;;;;;5094797;28;20539;-45
2021/01/06 03:22:39;;;;;;;6.10;0.90;;;;;;;;;;5112291;28;20024;-45
2021/01/06 03:25:11;;;;;;;6.07;0.88;;;;;;;;;;5109165;28;20345;-44
2021/01/06 03:27:39;;;;;;;2.75;0.73;;;;;;;;;;5112226;28;20028;-44
2021/01/06 03:30:11;;;;;;;8.05;1.08;;;;;;;;;;5108717;28;20080;-44
2021/01/06 03:32:46;;;;;;;4.68;1.30;;;;;;;;;;5108759;28;20212;-47
2021/01/06 03:35:21;;;;;;;7.28;1.08;;;;;;;;;;5105452;28;20100;-46
2021/01/06 03:37:56;;;;;;;10.07;1.83;;;;;;;;;;5105811;28;20019;-50
2021/01/06 03:40:35;;;;;;;6.38;1.33;;;;;;;;;;5103156;28;20091;-46
2021/01/06 03:43:02;;;;;;;6.32;1.13;;;;;;;;;;5096722;28;20023;-46
2021/01/06 03:45:30;;;;;;;6.82;1.25;;;;;;;;;;5100550;28;20028;-46
2021/01/06 03:48:16;;;;;;;3.85;1.20;;;;;;;;;;5102025;28;20024;-45
2021/01/06 03:50:45;;;;;;;5.68;1.30;;;;;;;;;;5098238;28;20471;-46
2021/01/06 03:53:30;;;;;;;5.22;0.95;;;;;;;;;;5101064;28;20034;-46
2021/01/06 03:55:58;;;;;;;3.60;0.80;;;;;;;;;;5093452;28;20031;-46
2021/01/06 03:58:37;;;;;;;5.32;1.23;;;;;;;;;;5093295;28;20016;-48
2021/01/06 04:01:08;;;;;;;6.55;1.25;;;;;;;;;;5093293;28;20032;-46
2021/01/06 04:03:55;;;;;;;7.10;0.90;;;;;;;;;;5093594;28;20048;-47
2021/01/06 04:06:25;;;;;;;9.18;1.30;;;;;;;;;;5093710;28;20016;-45
2021/01/06 04:08:55;;;;;;;6.75;1.00;;;;;;;;;;5093177;28;20024;-45
2021/01/06 04:11:24;;;;;;;3.83;1.15;;;;;;;;;;5107091;28;20374;-45
2021/01/06 04:13:51;;;;;;;7.80;1.27;;;;;;;;;;5113767;28;20016;-45
2021/01/06 04:16:18;;;;;;;6.82;1.70;;;;;;;;;;5113469;28;20111;-45
2021/01/06 04:18:45;;;;;;;7.05;1.50;;;;;;;;;;5113473;28;20026;-46
2021/01/06 04:21:13;;;;;;;12.45;1.45;;;;;;;;;;5113505;28;20028;-45
2021/01/06 04:23:40;;;;;;;5.10;0.88;;;;;;;;;;5113433;28;20072;-45
2021/01/06 04:26:07;;;;;;;3.10;0.90;;;;;;;;;;5113699;28;20059;-46
2021/01/06 04:28:35;;;;;;;8.90;1.77;;;;;;;;;;5113735;28;20024;-49
2021/01/06 04:31:04;;;;;;;4.80;0.90;;;;;;;;;;5102944;28;20525;-45
2021/01/06 04:33:35;;;;;;;3.03;0.68;;;;;;;;;;5107499;28;20483;-45
2021/01/06 04:36:04;;;;;;;4.72;0.93;;;;;;;;;;5113386;28;20031;-45
2021/01/06 04:38:37;;;;;;;5.50;0.90;;;;;;;;;;5113444;28;20023;-48
2021/01/06 04:41:23;;;;;;;5.35;1.02;;;;;;;;;;5078492;28;20520;-46
2021/01/06 04:43:58;;;;;;;5.28;0.70;;;;;;;;;;5074316;28;20477;-47
2021/01/06 04:46:43;;;;;;;4.63;1.58;;;;;;;;;;5092923;28;20016;-48
2021/01/06 04:49:13;;;;;;;6.10;0.90;;;;;;;;;;5093182;28;20423;-51
2021/01/06 04:51:48;;;;;;;6.03;0.98;;;;;;;;;;5093120;28;20074;-49
2021/01/06 04:54:33;;;;;;;5.10;1.10;;;;;;;;;;5110703;28;20051;-47
2021/01/06 04:57:16;;;;;;;6.30;1.20;;;;;;;;;;5112470;28;20114;-50
2021/01/06 04:59:44;;;;;;;2.58;0.85;;;;;;;;;;5113460;28;20501;-48
2021/01/06 05:02:14;;;;;;;9.48;1.35;;;;;;;;;;5113317;28;20126;-49
2021/01/06 05:05:16;;;;;;;5.53;1.73;;;;;;;;;;5113326;28;20062;-45
2021/01/06 05:07:46;;;;;;;5.90;1.42;;;;;;;;;;5030699;28;20113;-50
2021/01/06 05:10:19;;;;;;;9.30;1.88;;;;;;;;;;5080606;28;20498;-47
2021/01/06 05:12:48;;;;;;;5.43;1.00;;;;;;;;;;5113207;28;20046;-45
2021/01/06 05:15:18;;;;;;;7.18;1.33;;;;;;;;;;5113218;28;20061;-45
2021/01/06 05:17:45;;;;;;;3.22;0.98;;;;;;;;;;5113163;28;20024;-45
2021/01/06 05:20:12;;;;;;;5.32;1.10;;;;;;;;;;5112956;28;20023;-45
2021/01/06 05:22:39;;;;;;;8.02;1.10;;;;;;;;;;5113102;28;20032;-45
2021/01/06 05:25:06;;;;;;;3.78;0.80;;;;;;;;;;5095183;28;20072;-44
2021/01/06 05:27:39;;;;;;;17.30;1.55;;;;;;;;;;5112991;28;20019;-45
2021/01/06 05:30:19;;;;;;;8.90;1.25;;;;;;;;;;5112874;28;20019;-45
2021/01/06 05:32:46;;;;;;;7.15;1.40;;;;;;;;;;5112945;28;20039;-45
2021/01/06 05:35:19;;;;;;;9.25;1.48;;;;;;;;;;5113094;28;20469;-47
2021/01/06 05:37:49;;;;;;;6.32;1.08;;;;;;;;;;5112564;28;20028;-48
2021/01/06 05:40:16;;;;;;;8.45;1.63;;;;;;;;;;5112742;28;20016;-49
2021/01/06 05:43:04;;;;;;;8.20;1.13;;;;;;;;;;5112911;28;20035;-48
2021/01/06 05:45:45;;;;;;;6.07;1.40;;;;;;;;;;5099716;28;20039;-50
2021/01/06 05:48:23;;;;;;;5.47;1.17;;;;;;;;;;5112695;28;20031;-47
2021/01/06 05:50:58;;;;;;;6.80;1.40;;;;;;;;;;5094469;28;20032;-48
2021/01/06 05:53:43;;;;;;;7.53;1.33;;;;;;;;;;5111917;28;20555;-48
2021/01/06 05:56:28;;;;;;;10.85;1.55;;;;;;;;;;5112866;28;20471;-48
2021/01/06 05:58:59;;;;;;;9.52;1.73;;;;;;;;;;5112704;28;20032;-48
2021/01/06 06:01:44;;;;;;;6.45;1.95;;;;;;;;;;5112397;28;20088;-48
2021/01/06 06:04:33;;;;;;;12.40;1.42;;;;;;;;;;5112617;28;20431;-47
2021/01/06 06:07:18;;;;;;;7.38;1.50;;;;;;;;;;5094248;28;20045;-50
2021/01/06 06:09:45;;;;;;;9.30;1.40;;;;;;;;;;5115981;28;20055;-47
2021/01/06 06:12:12;;;;;;;10.55;1.58;;;;;;;;;;5116454;28;20023;-47
2021/01/06 06:14:50;;;;;;;5.00;1.48;;;;;;;;;;5116710;28;20041;-49
2021/01/06 06:17:17;;;;;;;7.60;2.00;;;;;;;;;;5116479;28;20504;-48
2021/01/06 06:20:02;;;;;;;5.88;1.30;;;;;;;;;;5116346;28;20490;-49
2021/01/06 06:22:35;;;;;;;8.27;1.80;;;;;;;;;;5116358;28;20088;-46
2021/01/06 06:25:02;;;;;;;7.80;1.52;;;;;;;;;;5116367;28;20471;-49
2021/01/06 06:27:47;;;;;;;6.32;1.73;;;;;;;;;;5116440;28;20028;-51
2021/01/06 06:30:27;;;;;;;9.98;1.90;;;;;;;;;;5116373;28;20019;-49
2021/01/06 06:32:54;;;;;;;8.40;1.55;;;;;;;;;;5116094;28;20031;-50
2021/01/06 06:35:24;;;;;;;9.88;1.73;;;;;;;;;;5115982;28;20420;-48
2021/01/06 06:37:54;;;;;;;5.93;1.30;;;;;;;;;;5115996;28;20356;-51
2021/01/06 06:40:21;;;;;;;8.10;1.40;;;;;;;;;;5116000;28;20019;-48
2021/01/06 06:42:53;;;;;;;8.10;1.63;;;;;;;;;;5115932;28;20569;-47
2021/01/06 06:45:32;;;;;;;7.85;1.17;;;;;;;;;;5115991;28;20382;-48
2021/01/06 06:48:09;;;;;;;8.60;1.35;;;;;;;;;;5115804;28;20019;-49
2021/01/06 06:50:56;;;;;;;8.43;1.63;;;;;;;;;;5116090;28;20023;-49
2021/01/06 06:53:33;;;;;;;6.70;1.85;;;;;;;;;;5074464;28;20065;-49
2021/01/06 06:56:21;;;;;;;6.07;1.20;;;;;;;;;;5115745;28;20035;-48
2021/01/06 06:58:54;;;;;;;8.23;1.75;;;;;;;;;;5115816;28;20030;-50
2021/01/06 07:01:20;;;;;;;;;;;;;;;;;;5115934;28;20501;-49
2021/01/06 07:04:07;;;;;;;10.20;2.20;;;;;;;;;;5115586;28;19908;-50
2021/01/06 07:06:35;;;;;;;8.30;1.27;;;;;;;;;;5115086;28;20053;-51
2021/01/06 07:09:03;;;;;;;4.68;1.17;;;;;;;;;;5115075;28;20034;-50
2021/01/06 07:11:46;;;;;;;9.85;1.45;;;;;;;;;;5115584;28;20032;-49
2021/01/06 07:14:21;;;;;;;7.32;1.27;;;;;;;;;;5115602;28;20077;-49
2021/01/06 07:16:51;;;;;;;6.70;1.00;;;;;;;;;;5115335;28;20031;-51
2021/01/06 07:19:21;;;;;;;8.25;1.67;;;;;;;;;;5113716;28;20494;-53
2021/01/06 07:21:54;;;;;;;5.93;1.60;;;;;;;;;;5115244;28;20478;-49
2021/01/06 07:24:22;;;;;;;5.15;1.08;;;;;;;;;;5115310;28;20048;-49
2021/01/06 07:26:54;;;;;;;7.10;1.13;;;;;;;;;;5115187;28;20024;-47
2021/01/06 07:29:23;;;;;;;5.60;0.95;;;;;;;;;;5115112;28;20110;-47
2021/01/06 07:31:59;;;;;;;6.93;0.93;;;;;;;;;;5114876;28;20098;-47
2021/01/06 07:34:40;;;;;;;4.15;1.10;;;;;;;;;;5114875;28;20027;-51
2021/01/06 07:37:10;;;;;;;4.38;0.93;;;;;;;;;;5115122;28;20483;-51
2021/01/06 07:39:37;;;;;;;7.60;1.17;;;;;;;;;;5096661;28;20368;-49
2021/01/06 07:42:07;;;;;;;2.50;0.70;;;;;;;;;;5114738;28;20471;-47
2021/01/06 07:44:38;;;;;;;5.45;1.10;;;;;;;;;;5114662;28;20027;-48
2021/01/06 07:47:11;;;;;;;5.13;1.23;;;;;;;;;;5114804;28;20019;-46
2021/01/06 07:50:13;;;;;;;6.72;1.27;;;;;;;;;;5114503;28;20031;-46
2021/01/06 07:52:47;;;;;;;4.93;1.10;;;;;;;;;;5031754;28;20037;-46
2021/01/06 07:55:32;;;;;;;4.75;1.10;;;;;;;;;;5102438;28;20046;-46
2021/01/06 07:58:04;;;;;;;5.80;0.80;;;;;;;;;;5114489;28;20141;-46
2021/01/06 08:00:33;;;;;;;4.70;0.90;;;;;;;;;;5114183;28;20425;-48
2021/01/06 08:03:07;;;;;;;2.13;0.70;;;;;;;;;;5114334;28;20445;-51
2021/01/06 08:05:36;;;;;;;3.55;0.95;;;;;;;;;;5114490;28;20022;-49
2021/01/06 08:08:14;;;;;;;3.35;0.98;;;;;;;;;;5114090;28;20106;-51
2021/01/06 08:10:42;;;;;;;2.38;0.60;;;;;;;;;;5114125;28;20059;-49
2021/01/06 08:13:28;;;;;;;5.50;1.02;;;;;;;;;;5114311;28;20023;-47
2021/01/06 08:16:07;;;;;;;2.90;0.70;;;;;;;;;;5114138;28;20019;-47
2021/01/06 08:18:52;;;;;;;5.57;1.42;;;;;;;;;;5114269;28;20019;-47
2021/01/06 08:21:31;;;;;;;3.95;0.73;;;;;;;;;;5114145;28;20186;-46
2021/01/06 08:24:09;;;;;;;5.13;1.08;;;;;;;;;;5114142;28;20035;-46
2021/01/06 08:26:36;;;;;;;4.35;1.13;;;;;;;;;;5096071;28;20022;-46
2021/01/06 08:29:11;;;;;;;2.92;1.13;;;;;;;;;;5113657;28;20050;-46
2021/01/06 08:31:38;;;;;;;2.90;0.75;;;;;;;;;;5113583;28;20020;-46
2021/01/06 08:34:06;;;;;;;3.47;0.98;;;;;;;;;;5095568;28;20024;-46
2021/01/06 08:36:38;;;;;;;3.00;0.73;;;;;;;;;;5113526;28;20019;-46
2021/01/06 08:39:08;;;;;;;4.68;0.70;;;;;;;;;;5113528;28;20023;-46
2021/01/06 08:41:35;;;;;;;2.90;0.95;;;;;;;;;;5113722;28;20513;-46
2021/01/06 08:44:03;;;;;;;1.73;0.40;;;;;;;;;;5113463;28;20391;-47
2021/01/06 08:46:34;;;;;;;2.95;0.85;;;;;;;;;;5113543;28;20024;-46
2021/01/06 08:49:09;;;;;;;4.33;1.27;;;;;;;;;;5113438;28;20012;-46
2021/01/06 08:51:37;;;;;;;2.15;0.65;;;;;;;;;;5113475;28;20020;-46
2021/01/06 08:54:36;;;;;;;3.72;1.00;;;;;;;;;;5113431;28;20016;-45
2021/01/06 08:57:22;;;;;;;3.85;1.08;;;;;;;;;;5068965;28;20088;-46
2021/01/06 08:59:49;;;;;;;3.45;1.20;;;;;;;;;;5113224;28;20034;-46
2021/01/06 09:02:21;;;;;;;4.68;1.02;;;;;;;;;;5113194;28;20114;-47
2021/01/06 09:04:48;;;;;;;3.88;1.00;;;;;;;;;;5113366;28;20019;-46
2021/01/06 09:07:18;;;;;;;4.68;0.98;;;;;;;;;;5113411;28;20514;-46
2021/01/06 09:09:45;;;;;;;2.75;0.88;;;;;;;;;;5113214;28;20040;-47
2021/01/06 09:12:33;;;;;;;2.30;0.60;;;;;;;;;;5113207;28;20041;-46
2021/01/06 09:15:00;;;;;;;3.53;0.70;;;;;;;;;;5113218;28;20032;-47
2021/01/06 09:17:33;;;;;;;3.08;0.75;;;;;;;;;;5113116;28;20098;-46
2021/01/06 09:20:12;;;;;;;2.70;0.70;;;;;;;;;;5113271;28;20035;-46
2021/01/06 09:22:40;;;;;;;3.67;0.95;;;;;;;;;;5113231;28;20023;-47
2021/01/06 09:25:07;;;;;;;4.43;0.82;;;;;;;;;;5112737;28;20016;-47
2021/01/06 09:27:41;;;;;;;4.65;0.95;;;;;;;;;;5112976;28;20069;-47
2021/01/06 09:30:19;;;;;;;3.47;1.30;;;;;;;;;;5113053;28;20098;-46
2021/01/06 09:32:47;;;;;;;1.88;0.65;;;;;;;;;;5113150;28;20039;-47
2021/01/06 09:35:26;;;;;;;3.00;0.90;;;;;;;;;;5112831;28;20027;-47
2021/01/06 09:38:03;;;;;;;3.20;1.02;;;;;;;;;;5112657;28;20032;-46
2021/01/06 09:40:31;;;;;;;2.08;0.68;;;;;;;;;;5112824;28;20043;-49
2021/01/06 09:43:03;;;;;;;3.88;1.13;;;;;;;;;;5113533;28;20593;-47
2021/01/06 09:45:30;;;;;;;2.33;0.63;;;;;;;;;;5117000;28;20031;-46
2021/01/06 09:47:59;;;;;;;2.50;0.80;;;;;;;;;;5116999;28;20077;-48
2021/01/06 09:50:31;;;;;;;2.17;1.05;;;;;;;;;;5116848;28;20020;-49
2021/01/06 09:53:00;;;;;;;2.92;0.60;;;;;;;;;;5117101;28;20406;-46
2021/01/06 09:55:28;;;;;;;2.45;0.80;;;;;;;;;;5116903;28;20058;-45
2021/01/06 09:58:08;;;;;;;4.13;0.80;;;;;;;;;;5116863;28;20098;-47
2021/01/06 10:00:54;;;;;;;3.20;0.80;;;;;;;;;;5117141;28;20102;-47
2021/01/06 10:03:21;;;;;;;3.38;1.00;;;;;;;;;;5116626;28;20395;-47
2021/01/06 10:06:05;;;;;;;3.47;0.70;;;;;;;;;;5116803;28;20026;-51
2021/01/06 10:08:36;;;;;;;3.08;1.08;;;;;;;;;;5116721;28;20106;-48
2021/01/06 10:11:25;;;;;;;5.10;1.00;;;;;;;;;;5116600;28;20087;-47
2021/01/06 10:13:58;;;;;;;3.40;0.77;;;;;;;;;;5116465;28;20051;-50
2021/01/06 10:16:34;;;;;;;3.08;0.77;;;;;;;;;;5116537;28;20038;-47
2021/01/06 10:19:13;;;;;;;1.73;0.68;;;;;;;;;;5116426;28;20027;-48
2021/01/06 10:21:40;;;;;;;4.72;1.33;;;;;;;;;;5116378;28;20517;-47
2021/01/06 10:24:19;;;;;;;5.95;1.35;;;;;;;;;;5116415;28;20023;-46
2021/01/06 10:27:06;;;;;;;2.85;0.70;;;;;;;;;;5116591;28;20015;-48
2021/01/06 10:29:34;;;;;;;2.97;0.60;;;;;;;;;;5065220;28;20032;-48
2021/01/06 10:32:08;;;;;;;4.00;1.10;;;;;;;;;;5116223;28;20111;-46
2021/01/06 10:34:41;;;;;;;3.35;0.90;;;;;;;;;;5115925;28;20019;-47
2021/01/06 10:37:23;;;;;;;2.65;0.82;;;;;;;;;;5116255;28;20425;-48
2021/01/06 10:39:54;;;;;;;2.40;0.70;;;;;;;;;;5116185;28;20471;-47
2021/01/06 10:42:21;;;;;;;2.28;0.75;;;;;;;;;;5116115;28;20119;-49
2021/01/06 10:44:59;;;;;;;2.58;0.70;;;;;;;;;;5115932;28;20484;-46
2021/01/06 10:47:28;;;;;;;4.40;1.05;;;;;;;;;;5115933;28;20034;-47
2021/01/06 10:49:57;;;;;;;3.03;0.57;;;;;;;;;;5097625;28;20038;-48
2021/01/06 10:52:25;;;;;;;3.10;0.68;;;;;;;;;;5115928;28;20019;-47
2021/01/06 10:54:52;;;;;;;3.45;0.70;;;;;;;;;;5115605;28;20049;-48
2021/01/06 10:57:39;;;;;;;2.03;0.68;;;;;;;;;;5114666;28;20020;-50
2021/01/06 11:00:09;;;;;;;3.95;1.10;;;;;;;;;;5097298;28;20454;-47
2021/01/06 11:03:02;;;;;;;3.90;0.90;;;;;;;;;;5115943;28;20028;-52
2021/01/06 11:05:52;;;;;;;3.13;0.88;;;;;;;;;;5111467;28;20038;-48
2021/01/06 11:08:37;;;;;;;2.72;0.70;;;;;;;;;;5068406;28;20483;-48
2021/01/06 11:11:23;;;;;;;3.65;0.80;;;;;;;;;;5204270;22;20511;-44
2021/01/06 11:14:03;;;;;;;2.75;1.02;;;;;;;;;;5095091;28;20024;-47
2021/01/06 11:16:50;;;;;;;3.97;0.75;;;;;;;;;;5112493;28;20024;-45
2021/01/06 11:19:36;;;;;;;3.08;0.82;;;;;;;;;;5207927;22;20014;-48
2021/01/06 11:22:19;;;;;;;3.63;0.50;;;;;;;;;;5072464;28;20045;-48
2021/01/06 11:24:58;;;;;;;4.22;1.15;;;;;;;;;;5074680;28;20028;-48
2021/01/06 11:27:34;;;;;;;2.28;0.73;;;;;;;;;;5073579;28;20021;-47
2021/01/06 11:30:30;;;;;;;2.88;0.70;;;;;;;;;;5074493;28;20028;-47
2021/01/06 11:33:17;;;;;;;3.63;0.52;;;;;;;;;;5065452;28;20036;-51
2021/01/06 11:35:58;;;;;;;4.05;0.77;;;;;;;;;;5074321;28;20357;-49
2021/01/06 11:38:52;;;;;;;1.33;0.68;;;;;;;;;;5073133;28;20035;-52
2021/01/06 11:41:38;;;;;;;3.33;0.85;;;;;;;;;;5072327;28;20052;-51
2021/01/06 11:44:24;;;;;;;1.50;0.60;;;;;;;;;;5074276;28;20017;-47
2021/01/06 11:46:53;;;;;;;2.90;0.98;;;;;;;;;;5074187;28;20027;-46
2021/01/06 11:49:29;;;;;;;2.58;0.80;;;;;;;;;;5074026;28;20024;-46
2021/01/06 11:52:11;;;;;;;2.70;0.60;;;;;;;;;;5074140;28;20104;-45
2021/01/06 11:54:44;;;;;;;1.65;0.60;;;;;;;;;;5074117;28;20528;-48
2021/01/06 11:57:18;;;;;;;2.92;0.75;;;;;;;;;;5074197;28;20024;-46
2021/01/06 11:59:54;;;;;;;3.20;0.90;;;;;;;;;;5074057;28;20016;-46
2021/01/06 12:02:29;;;;;;;2.60;0.70;;;;;;;;;;5073840;28;20545;-47
2021/01/06 12:04:58;;;;;;;2.63;0.98;;;;;;;;;;5073508;28;20029;-46
2021/01/06 12:07:40;;;;;;;3.35;0.90;;;;;;;;;;5073083;28;20058;-47
2021/01/06 12:10:11;;;;;;;2.30;0.70;;;;;;;;;;5073611;28;20420;-47
2021/01/06 12:12:56;;;;;;;2.00;0.95;;;;;;;;;;5073678;28;20017;-46
2021/01/06 12:15:23;;;;;;;2.47;0.65;;;;;;;;;;5073641;28;20033;-46
2021/01/06 12:17:52;;;;;;;3.75;0.90;;;;;;;;;;5073666;28;20028;-47
2021/01/06 12:20:22;;;;;;;2.58;0.60;;;;;;;;;;5079873;28;20560;-46
2021/01/06 12:23:07;;;;;;;1.52;0.55;;;;;;;;;;5093813;28;20131;-45
2021/01/06 12:25:34;;;;;;;3.53;0.70;;;;;;;;;;5080143;28;20112;-47
2021/01/06 12:28:05;;;;;;;1.55;0.47;;;;;;;;;;5055160;28;20047;-47
2021/01/06 12:30:41;;;;;;;3.25;0.73;;;;;;;;;;5073337;28;20040;-47
2021/01/06 12:33:20;;;;;;;3.08;0.70;;;;;;;;;;5055852;28;20029;-48
2021/01/06 12:35:48;;;;;;;10.00;0.88;;;;;;;;;;5056634;28;20025;-47
2021/01/06 12:38:23;;;;;;;12.23;1.45;;;;;;;;;;5071697;28;20107;-45
2021/01/06 12:41:05;;;;;;;8.02;1.02;;;;;;;;;;5072635;28;20389;-46
2021/01/06 12:43:41;;;;;;;6.57;1.58;;;;;;;;;;5069633;28;20519;-44
2021/01/06 12:46:14;;;;;;;10.60;1.40;;;;;;;;;;5072646;28;20115;-45
2021/01/06 12:48:52;;;;;;;7.90;1.30;;;;;;;;;;5071985;28;20032;-50
2021/01/06 12:51:21;;;;;;;16.95;1.42;;;;;;;;;;5072644;28;20025;-44
2021/01/06 12:54:00;;;;;;;5.95;1.00;;;;;;;;;;5072585;28;20048;-45
2021/01/06 12:56:36;;;;;;;9.80;1.10;;;;;;;;;;5072502;28;20036;-47
2021/01/06 12:59:06;;;;;;;6.78;1.50;;;;;;;;;;5066034;28;20455;-45
2021/01/06 13:01:38;;;;;;;9.10;2.13;;;;;;;;;;5068706;28;20038;-44
2021/01/06 13:04:08;;;;;;;8.55;1.13;;;;;;;;;;5063865;28;20016;-47
2021/01/06 13:06:38;;;;;;;4.97;1.02;;;;;;;;;;5072529;28;20475;-46
2021/01/06 13:09:14;;;;;;;7.32;1.20;;;;;;;;;;5069267;28;20025;-47
2021/01/06 13:11:44;;;;;;;11.20;1.52;;;;;;;;;;5064047;28;20028;-45
2021/01/06 13:14:20;;;;;;;7.32;1.67;;;;;;;;;;5065799;28;20048;-43
2021/01/06 13:17:18;;;;;;;9.57;0.93;;;;;;;;;;5066277;28;20025;-47
2021/01/06 13:20:00;;;;;;;9.45;1.58;;;;;;;;;;5073871;28;20032;-52
2021/01/06 13:22:40;;;;;;;9.40;1.27;;;;;;;;;;5067722;28;20399;-48
2021/01/06 13:25:21;;;;;;;10.52;1.08;;;;;;;;;;5062514;28;20400;-51
2021/01/06 13:27:54;;;;;;;8.95;1.27;;;;;;;;;;5067649;28;20477;-47
2021/01/06 13:30:24;;;;;;;6.43;1.00;;;;;;;;;;5065912;28;20040;-47
2021/01/06 13:33:09;;;;;;;7.70;0.90;;;;;;;;;;5068915;28;20047;-49
2021/01/06 13:35:39;;;;;;;16.08;1.50;;;;;;;;;;5065352;28;20111;-47
2021/01/06 13:38:12;;;;;;;10.05;1.48;;;;;;;;;;5070713;28;20345;-44
2021/01/06 13:40:41;;;;;;;6.38;1.50;;;;;;;;;;5069403;28;20021;-47
2021/01/06 13:43:19;;;;;;;16.27;1.48;;;;;;;;;;5065753;28;20765;-48
2021/01/06 13:45:49;;;;;;;8.57;1.30;;;;;;;;;;5063803;28;20021;-47
2021/01/06 13:48:37;;;;;;;11.68;1.42;;;;;;;;;;5067777;28;20048;-49
2021/01/06 13:51:19;;;;;;;8.48;1.30;;;;;;;;;;5062693;28;20496;-47
2021/01/06 13:53:47;;;;;;;9.20;1.33;;;;;;;;;;5061597;28;20130;-51
2021/01/06 13:56:32;;;;;;;7.70;0.95;;;;;;;;;;5064490;28;20029;-52
2021/01/06 13:59:05;;;;;;;10.05;1.30;;;;;;;;;;5066878;28;20020;-51
2021/01/06 14:01:45;;;;;;;9.55;1.17;;;;;;;;;;5063882;28;20040;-52
2021/01/06 14:04:22;;;;;;;6.10;0.90;;;;;;;;;;5067640;28;20025;-51
2021/01/06 14:06:49;;;;;;;17.00;1.95;;;;;;;;;;5068377;28;20034;-46
2021/01/06 14:09:19;;;;;;;11.15;1.35;;;;;;;;;;5066633;28;20016;-51
2021/01/06 14:11:55;;;;;;;8.63;1.20;;;;;;;;;;5056505;28;20036;-47
2021/01/06 14:14:40;;;;;;;7.25;0.98;;;;;;;;;;5051552;28;20021;-47
2021/01/06 14:17:26;;;;;;;8.55;0.88;;;;;;;;;;5050844;28;20109;-53
2021/01/06 14:19:57;;;;;;;4.95;0.88;;;;;;;;;;5051360;28;20029;-46
2021/01/06 14:22:29;;;;;;;2.75;0.93;;;;;;;;;;5051602;28;20107;-46
2021/01/06 14:24:57;;;;;;;9.82;0.98;;;;;;;;;;5051364;28;20370;-53
2021/01/06 14:27:43;;;;;;;3.80;0.80;;;;;;;;;;5051550;28;20522;-59
2021/01/06 14:30:20;;;;;;;2.40;0.52;;;;;;;;;;5054947;28;20025;-58
2021/01/06 14:32:50;;;;;;;3.92;0.85;;;;;;;;;;5055318;28;20055;-55
2021/01/06 14:35:18;;;;;;;7.95;0.80;;;;;;;;;;5055037;28;20030;-58
2021/01/06 14:38:03;;;;;;;1.83;0.82;;;;;;;;;;5055289;28;20431;-59
2021/01/06 14:40:35;;;;;;;2.63;0.65;;;;;;;;;;5055352;28;20075;-56
2021/01/06 14:43:21;;;;;;;3.80;0.60;;;;;;;;;;5055561;28;20025;-49
2021/01/06 14:46:03;;;;;;;3.28;0.70;;;;;;;;;;5055367;28;20029;-47
2021/01/06 14:48:33;;;;;;;3.13;0.88;;;;;;;;;;5055125;28;20532;-51
2021/01/06 14:51:03;;;;;;;2.70;0.75;;;;;;;;;;5055215;28;20376;-56
2021/01/06 14:54:08;;;;;;;4.03;0.63;;;;;;;;;;5055218;28;20044;-52
2021/01/06 14:56:41;;;;;;;3.33;1.05;;;;;;;;;;4974157;28;20113;-56
2021/01/06 14:59:14;;;;;;;4.03;0.95;;;;;;;;;;4974243;28;20035;-51
2021/01/06 15:01:49;;;;;;;4.60;0.80;;;;;;;;;;5020435;28;20127;-52
2021/01/06 15:04:42;;;;;;;4.75;1.02;;;;;;;;;;5055081;28;20036;-56
2021/01/06 15:07:29;;;;;;;3.78;0.88;;;;;;;;;;5051596;28;20120;-51
2021/01/06 15:09:57;;;;;;;1.85;0.70;;;;;;;;;;5054695;28;20079;-54
2021/01/06 15:12:51;;;;;;;5.10;0.95;;;;;;;;;;5054842;28;20116;-55
2021/01/06 15:15:26;;;;;;;2.17;0.65;;;;;;;;;;5051490;28;20037;-54
2021/01/06 15:17:55;;;;;;;1.27;0.40;;;;;;;;;;5054931;28;20404;-51
2021/01/06 15:20:34;;;;;;;2.63;0.60;;;;;;;;;;5054470;28;20052;-51
2021/01/06 15:23:06;;;;;;;2.53;0.77;;;;;;;;;;5054705;28;20041;-55